createdAt,value
2022-12-22T00:02:35.528Z,101116.81
2022-12-22T00:05:21.242Z,101099.84
2022-12-22T00:08:07.029Z,101108.59
2022-12-22T00:10:52.708Z,101104.19
2022-12-22T00:13:38.494Z,101103.91
2022-12-22T00:16:24.173Z,101106.13
2022-12-22T00:19:09.401Z,101112.97
2022-12-22T00:21:54.851Z,101111.59
2022-12-22T00:24:40.143Z,101116.00
2022-12-22T00:27:33.749Z,101108.59
2022-12-22T00:30:19.823Z,101110.81
2022-12-22T00:33:05.968Z,101109.19
2022-12-22T00:35:52.284Z,101108.91
2022-12-22T00:38:40.639Z,101110.28
2022-12-22T00:41:26.174Z,101114.16
2022-12-22T00:44:11.477Z,101112.25
2022-12-22T00:47:01.139Z,101105.41
2022-12-22T00:49:50.699Z,101109.50
2022-12-22T00:52:39.428Z,101109.22
2022-12-22T00:55:36.259Z,101088.19
2022-12-22T00:58:25.358Z,101084.34
2022-12-22T01:01:10.719Z,101090.63
2022-12-22T01:03:56.545Z,101082.16
2022-12-22T01:06:43.666Z,101084.56
2022-12-22T01:09:29.144Z,101078.78
2022-12-22T01:12:14.559Z,101081.19
2022-12-22T01:15:00.088Z,101074.84
2022-12-22T01:17:45.587Z,101074.22
2022-12-22T01:20:31.460Z,101081.06
2022-12-22T01:23:17.136Z,101080.81
2022-12-22T01:26:03.017Z,101080.25
2022-12-22T01:28:48.715Z,101075.59
2022-12-22T01:31:45.962Z,101076.69
2022-12-22T01:34:31.268Z,101066.28
2022-12-22T01:37:16.742Z,101057.84
2022-12-22T01:40:01.889Z,101066.25
2022-12-22T01:42:50.091Z,101066.16
2022-12-22T01:45:49.797Z,101067.31
2022-12-22T01:48:38.508Z,101061.31
2022-12-22T01:51:29.203Z,101061.31
2022-12-22T01:54:16.572Z,101058.59
2022-12-22T01:57:04.945Z,101053.63
2022-12-22T01:59:50.764Z,101048.50
2022-12-22T02:02:38.059Z,101052.31
2022-12-22T02:05:26.514Z,101051.47
2022-12-22T02:08:20.941Z,101047.06
2022-12-22T02:11:43.795Z,101042.41
2022-12-22T02:14:30.421Z,101047.78
2022-12-22T02:17:37.044Z,101049.06
2022-12-22T02:20:40.925Z,101037.06
2022-12-22T02:23:40.962Z,101030.00
2022-12-22T02:26:44.481Z,101036.78
2022-12-22T02:29:32.497Z,101036.16
2022-12-22T02:32:18.525Z,101042.78
2022-12-22T02:35:04.034Z,101031.63
2022-12-22T02:38:03.772Z,101025.69
2022-12-22T02:41:11.599Z,101033.63
2022-12-22T02:44:29.916Z,101030.50
2022-12-22T02:47:28.083Z,101024.84
2022-12-22T02:50:18.037Z,101016.66
2022-12-22T02:53:06.301Z,101029.25
2022-12-22T02:55:52.603Z,101024.94
2022-12-22T02:58:38.407Z,101024.69
2022-12-22T03:01:25.249Z,101026.69
2022-12-22T03:04:10.987Z,101029.19
2022-12-22T03:06:56.660Z,101025.97
2022-12-22T03:09:42.242Z,101031.63
2022-12-22T03:26:48.795Z,101029.34
2022-12-22T03:29:15.788Z,101024.56
2022-12-22T03:31:42.666Z,101029.06
2022-12-22T03:34:09.530Z,101025.59
2022-12-22T03:36:36.548Z,101021.56
2022-12-22T03:39:03.845Z,101021.91
2022-12-22T03:41:50.527Z,101018.94
2022-12-22T03:44:36.124Z,101024.19
2022-12-22T03:47:03.120Z,101022.00
2022-12-22T03:49:30.165Z,101012.69
2022-12-22T03:51:57.039Z,101018.69
2022-12-22T03:54:26.002Z,101018.97
2022-12-22T03:56:54.073Z,101010.53
2022-12-22T03:59:21.286Z,101010.28
2022-12-22T04:01:53.234Z,101008.91
2022-12-22T04:04:23.167Z,101015.16
2022-12-22T04:06:50.091Z,101011.03
2022-12-22T04:09:17.327Z,101007.47
2022-12-22T04:12:05.585Z,101008.03
2022-12-22T04:14:34.600Z,100996.28
2022-12-22T04:17:03.701Z,101008.28
2022-12-22T04:19:31.489Z,101011.56
2022-12-22T04:21:58.713Z,101012.16
2022-12-22T04:24:25.636Z,101018.13
2022-12-22T04:26:53.385Z,101014.78
2022-12-22T04:29:20.341Z,101014.47
2022-12-22T04:31:47.228Z,101011.47
2022-12-22T04:34:14.220Z,101013.59
2022-12-22T04:36:41.175Z,101004.81
2022-12-22T04:39:08.272Z,101010.78
2022-12-22T04:41:35.178Z,101007.66
2022-12-22T04:44:02.240Z,101010.34
2022-12-22T04:46:29.248Z,101014.47
2022-12-22T04:48:59.994Z,101011.22
2022-12-22T04:51:28.701Z,101021.25
2022-12-22T04:53:55.949Z,101004.84
2022-12-22T04:56:22.838Z,101009.97
2022-12-22T04:58:49.689Z,101009.91
2022-12-22T05:01:18.662Z,101013.41
2022-12-22T05:03:46.814Z,101011.47
2022-12-22T05:06:14.900Z,101010.88
2022-12-22T05:08:41.759Z,101007.22
2022-12-22T05:11:08.786Z,101006.38
2022-12-22T05:13:35.728Z,101010.22
2022-12-22T05:16:05.656Z,101016.84
2022-12-22T05:18:34.040Z,101013.31
2022-12-22T05:21:06.908Z,101010.75
2022-12-22T05:23:33.900Z,101016.03
2022-12-22T05:26:01.018Z,101020.34
2022-12-22T05:28:27.943Z,101018.63
2022-12-22T05:30:55.563Z,101021.72
2022-12-22T05:33:22.433Z,101029.72
2022-12-22T05:35:49.407Z,101028.50
2022-12-22T05:38:16.419Z,101024.28
2022-12-22T05:40:43.261Z,101023.00
2022-12-22T05:43:10.404Z,101020.34
2022-12-22T05:45:37.474Z,101016.66
2022-12-22T05:48:05.507Z,101024.66
2022-12-22T05:50:32.815Z,101027.53
2022-12-22T05:53:05.611Z,101025.97
2022-12-22T05:55:32.920Z,101032.56
2022-12-22T05:58:02.081Z,101030.63
2022-12-22T06:00:30.875Z,101032.34
2022-12-22T06:02:58.152Z,101045.09
2022-12-22T06:05:25.154Z,101034.97
2022-12-22T06:07:52.387Z,101041.00
2022-12-22T06:10:20.807Z,101034.78
2022-12-22T06:12:47.691Z,101035.19
2022-12-22T06:15:15.507Z,101043.03
2022-12-22T06:17:45.203Z,101038.66
2022-12-22T06:20:13.977Z,101044.69
2022-12-22T06:22:40.903Z,101043.94
2022-12-22T06:25:10.895Z,101046.25
2022-12-22T06:27:42.711Z,101038.25
2022-12-22T06:30:10.414Z,101048.16
2022-12-22T06:32:38.220Z,101052.56
2022-12-22T06:35:06.246Z,101041.38
2022-12-22T06:37:33.136Z,101052.63
2022-12-22T06:39:59.975Z,101047.66
2022-12-22T06:42:45.463Z,101049.59
2022-12-22T06:45:12.849Z,101045.53
2022-12-22T06:47:39.815Z,101053.38
2022-12-22T06:50:07.433Z,101053.88
2022-12-22T06:52:34.289Z,101050.78
2022-12-22T06:55:02.372Z,101061.19
2022-12-22T06:57:29.701Z,101050.84
2022-12-22T06:59:57.761Z,101052.50
2022-12-22T07:02:25.585Z,101057.50
2022-12-22T07:04:53.884Z,101061.88
2022-12-22T07:07:20.877Z,101059.72
2022-12-22T07:09:47.774Z,101056.94
2022-12-22T07:12:14.581Z,101060.97
2022-12-22T07:14:41.442Z,101056.41
2022-12-22T07:17:09.245Z,101064.97
2022-12-22T07:19:36.122Z,101059.66
2022-12-22T07:22:03.022Z,101068.88
2022-12-22T07:24:29.915Z,101072.81
2022-12-22T07:26:56.992Z,101060.91
2022-12-22T07:29:24.141Z,101072.13
2022-12-22T07:31:51.075Z,101062.59
2022-12-22T07:34:18.124Z,101062.06
2022-12-22T07:36:44.969Z,101065.88
2022-12-22T07:39:12.791Z,101069.00
2022-12-22T07:41:58.776Z,101065.75
2022-12-22T07:44:25.655Z,101068.69
2022-12-22T07:46:52.671Z,101068.31
2022-12-22T07:49:38.373Z,101057.91
2022-12-22T07:52:05.323Z,101068.78
2022-12-22T07:54:36.552Z,101069.34
2022-12-22T07:57:06.547Z,101070.09
2022-12-22T07:59:33.368Z,101071.41
2022-12-22T08:02:00.434Z,101075.91
2022-12-22T08:04:27.520Z,101056.88
2022-12-22T08:06:55.203Z,101066.91
2022-12-22T08:09:23.213Z,101053.72
2022-12-22T08:11:50.463Z,101052.72
2022-12-22T08:14:17.403Z,101054.03
2022-12-22T08:16:44.411Z,101049.53
2022-12-22T08:19:11.502Z,101040.19
2022-12-22T08:21:39.050Z,101040.44
2022-12-22T08:24:07.112Z,101035.88
2022-12-22T08:26:39.719Z,101026.31
2022-12-22T08:29:18.708Z,101021.31
2022-12-22T08:31:45.885Z,101020.25
2022-12-22T08:34:15.318Z,101019.16
2022-12-22T08:36:46.520Z,101022.75
2022-12-22T08:39:14.965Z,101014.22
2022-12-22T08:41:50.829Z,101011.81
2022-12-22T08:44:41.086Z,101007.72
2022-12-22T08:47:13.146Z,101008.91
2022-12-22T08:49:43.447Z,101010.72
2022-12-22T08:52:16.004Z,101008.09
2022-12-22T08:54:45.237Z,101002.75
2022-12-22T08:57:12.155Z,101000.06
2022-12-22T08:59:39.051Z,100995.69
2022-12-22T09:02:06.214Z,101001.84
2022-12-22T09:04:34.409Z,100995.06
2022-12-22T09:07:02.789Z,100994.19
2022-12-22T09:09:34.376Z,100996.66
2022-12-22T09:12:03.092Z,100981.09
2022-12-22T09:14:30.731Z,100986.16
2022-12-22T09:16:57.744Z,100975.34
2022-12-22T09:19:24.648Z,100984.00
2022-12-22T09:21:51.560Z,100970.13
2022-12-22T09:24:18.655Z,100971.00
2022-12-22T09:26:45.654Z,100969.88
2022-12-22T09:29:15.616Z,100959.31
2022-12-22T09:31:43.673Z,100955.94
2022-12-22T09:34:16.809Z,100951.44
2022-12-22T09:36:45.108Z,100951.06
2022-12-22T09:39:12.076Z,100951.44
2022-12-22T09:41:52.648Z,100946.38
2022-12-22T09:44:50.715Z,100948.44
2022-12-22T09:47:36.089Z,100950.72
2022-12-22T09:50:04.805Z,100947.69
2022-12-22T09:52:34.758Z,100950.91
2022-12-22T09:55:02.471Z,100940.66
2022-12-22T09:57:31.912Z,100941.97
2022-12-22T10:00:10.969Z,100945.97
2022-12-22T10:02:48.053Z,100941.34
2022-12-22T10:05:30.964Z,100934.50
2022-12-22T10:08:15.322Z,100927.78
2022-12-22T10:10:42.857Z,100922.28
2022-12-22T10:13:18.383Z,100919.53
2022-12-22T10:15:45.638Z,100903.47
2022-12-22T10:18:25.602Z,100913.56
2022-12-22T10:21:15.159Z,100917.25
2022-12-22T10:23:48.727Z,100909.53
2022-12-22T10:26:30.694Z,100909.53
2022-12-22T10:29:03.985Z,100907.38
2022-12-22T10:31:33.260Z,100902.47
2022-12-22T10:34:15.504Z,100894.91
2022-12-22T10:36:48.398Z,100903.19
2022-12-22T10:39:23.214Z,100883.09
2022-12-22T10:41:52.291Z,100888.69
2022-12-22T10:44:22.747Z,100880.97
2022-12-22T10:46:53.461Z,100867.97
2022-12-22T10:49:25.432Z,100875.09
2022-12-22T10:51:54.429Z,100876.25
2022-12-22T10:54:36.277Z,100863.97
2022-12-22T10:57:25.231Z,100870.22
2022-12-22T11:00:03.139Z,100868.31
2022-12-22T11:02:38.719Z,100864.75
2022-12-22T11:05:09.042Z,100854.03
2022-12-22T11:07:39.361Z,100860.75
2022-12-22T11:10:33.855Z,100859.47
2022-12-22T11:13:09.857Z,100853.84
2022-12-22T11:15:44.028Z,100857.34
2022-12-22T11:18:46.402Z,100854.19
2022-12-22T11:21:24.420Z,100842.59
2022-12-22T11:24:13.462Z,100845.03
2022-12-22T11:26:55.332Z,100846.31
2022-12-22T11:29:34.922Z,100845.53
2022-12-22T11:32:13.863Z,100836.97
2022-12-22T11:35:06.855Z,100833.88
2022-12-22T11:37:48.716Z,100830.94
2022-12-22T11:40:21.560Z,100836.06
2022-12-22T11:43:23.883Z,100849.44
2022-12-22T11:45:59.883Z,100826.22
2022-12-22T11:48:36.608Z,100822.88
2022-12-22T11:51:27.003Z,100830.34
2022-12-22T11:54:36.600Z,100824.69
2022-12-22T11:57:04.997Z,100818.91
2022-12-22T11:59:34.523Z,100820.09
2022-12-22T12:02:16.629Z,100825.41
2022-12-22T12:05:15.986Z,100811.97
2022-12-22T12:08:03.876Z,100810.22
2022-12-22T12:10:44.912Z,100806.34
2022-12-22T12:13:37.453Z,100804.63
2022-12-22T12:16:18.505Z,100806.16
2022-12-22T12:19:28.539Z,100812.75
2022-12-22T12:21:58.992Z,100801.84
2022-12-22T12:24:28.794Z,100800.06
2022-12-22T12:26:58.425Z,100802.25
2022-12-22T12:29:35.574Z,100806.59
2022-12-22T12:32:11.549Z,100806.56
2022-12-22T12:34:44.594Z,100804.81
2022-12-22T12:37:37.822Z,100805.06
2022-12-22T12:40:20.458Z,100798.94
2022-12-22T12:42:48.993Z,100798.94
2022-12-22T12:45:51.490Z,100811.25
2022-12-22T12:48:21.134Z,100805.13
2022-12-22T12:50:49.177Z,100804.47
2022-12-22T12:53:17.923Z,100805.50
2022-12-22T12:55:51.947Z,100799.59
2022-12-22T12:58:39.913Z,100804.69
2022-12-22T13:01:30.564Z,100802.84
2022-12-22T13:04:05.906Z,100796.22
2022-12-22T13:06:50.966Z,100801.94
2022-12-22T13:12:34.832Z,100797.66
2022-12-22T13:15:02.117Z,100812.75
2022-12-22T13:17:53.580Z,100799.00
2022-12-22T13:20:35.450Z,100807.25
2022-12-22T13:23:10.508Z,100802.94
2022-12-22T13:25:48.298Z,100797.84
2022-12-22T13:28:17.064Z,100797.84
2022-12-22T13:31:06.203Z,100801.94
2022-12-22T13:33:39.095Z,100797.03
2022-12-22T13:36:08.514Z,100794.56
2022-12-22T13:38:37.747Z,100793.63
2022-12-22T13:41:17.134Z,100796.28
2022-12-22T13:43:53.430Z,100796.81
2022-12-22T13:46:20.677Z,100794.84
2022-12-22T13:48:55.279Z,100789.72
2022-12-22T13:51:26.426Z,100792.25
2022-12-22T13:54:08.588Z,100795.00
2022-12-22T13:56:51.996Z,100797.25
2022-12-22T13:59:26.799Z,100797.88
2022-12-22T14:02:18.683Z,100793.47
2022-12-22T14:05:09.131Z,100789.72
2022-12-22T14:07:36.316Z,100790.06
2022-12-22T14:10:04.450Z,100783.47
2022-12-22T14:12:41.112Z,100782.16
2022-12-22T14:15:16.964Z,100780.59
2022-12-22T14:17:52.306Z,100782.84
2022-12-22T14:20:24.983Z,100791.78
2022-12-22T14:22:56.128Z,100788.78
2022-12-22T14:25:44.853Z,100779.06
2022-12-22T14:28:28.385Z,100787.59
2022-12-22T14:31:00.179Z,100781.06
2022-12-22T14:33:32.789Z,100785.25
2022-12-22T14:36:11.802Z,100789.44
2022-12-22T14:38:42.028Z,100791.03
2022-12-22T14:41:43.157Z,100787.56
2022-12-22T14:44:14.461Z,100782.44
2022-12-22T14:46:42.771Z,100785.94
2022-12-22T14:49:18.016Z,100783.31
2022-12-22T14:52:00.982Z,100778.50
2022-12-22T14:54:28.922Z,100775.69
2022-12-22T14:57:08.527Z,100774.03
2022-12-22T14:59:40.069Z,100771.97
2022-12-22T15:02:39.615Z,100774.72
2022-12-22T15:05:15.184Z,100775.03
2022-12-22T15:08:08.303Z,100779.41
2022-12-22T15:10:44.816Z,100771.25
2022-12-22T15:13:18.432Z,100767.41
2022-12-22T15:28:55.216Z,100773.81
2022-12-22T15:31:22.374Z,100775.25
2022-12-22T15:33:49.198Z,100780.53
2022-12-22T15:36:16.187Z,100779.44
2022-12-22T15:38:43.063Z,100777.19
2022-12-22T15:41:09.874Z,100780.13
2022-12-22T15:43:57.172Z,100783.75
2022-12-22T15:46:24.820Z,100781.22
2022-12-22T15:48:52.628Z,100782.03
2022-12-22T15:51:28.578Z,100782.91
2022-12-22T15:53:57.804Z,100784.28
2022-12-22T15:56:27.616Z,100785.59
2022-12-22T15:58:55.338Z,100781.81
2022-12-22T16:01:22.498Z,100775.50
2022-12-22T16:03:49.489Z,100777.69
2022-12-22T16:06:19.680Z,100783.75
2022-12-22T16:08:50.803Z,100783.00
2022-12-22T16:11:17.879Z,100784.94
2022-12-22T16:13:45.617Z,100787.91
2022-12-22T16:16:12.549Z,100791.97
2022-12-22T16:18:39.588Z,100793.03
2022-12-22T16:21:33.145Z,100791.31
2022-12-22T16:24:01.777Z,100792.78
2022-12-22T16:26:28.912Z,100782.63
2022-12-22T16:28:56.013Z,100796.31
2022-12-22T16:31:24.690Z,100799.69
2022-12-22T16:33:52.106Z,100783.34
2022-12-22T16:36:19.099Z,100789.94
2022-12-22T16:38:47.589Z,100788.44
2022-12-22T16:41:25.542Z,100789.47
2022-12-22T16:46:40.357Z,100776.34
2022-12-22T16:49:09.247Z,100775.59
2022-12-22T16:51:40.415Z,100780.38
2022-12-22T16:54:07.450Z,100778.69
2022-12-22T16:56:35.149Z,100774.59
2022-12-22T16:59:04.637Z,100777.56
2022-12-22T17:01:31.989Z,100779.81
2022-12-22T17:04:03.763Z,100772.03
2022-12-22T17:06:30.797Z,100775.63
2022-12-22T17:08:57.897Z,100772.97
2022-12-22T17:11:29.336Z,100769.72
2022-12-22T17:14:03.887Z,100772.50
2022-12-22T17:16:30.782Z,100781.06
2022-12-22T17:18:57.756Z,100782.47
2022-12-22T17:21:25.622Z,100776.84
2022-12-22T17:23:55.055Z,100778.50
2022-12-22T17:26:25.663Z,100779.97
2022-12-22T17:28:53.352Z,100776.91
2022-12-22T17:31:22.550Z,100781.94
2022-12-22T17:33:49.668Z,100783.34
2022-12-22T17:36:25.999Z,100779.56
2022-12-22T17:38:54.299Z,100789.19
2022-12-22T17:41:21.255Z,100781.53
2022-12-22T17:43:48.142Z,100779.63
2022-12-22T17:46:20.119Z,100785.13
2022-12-22T17:48:47.856Z,100778.09
2022-12-22T17:51:24.014Z,100778.69
2022-12-22T17:53:52.575Z,100775.97
2022-12-22T17:56:22.151Z,100787.44
2022-12-22T17:58:50.037Z,100783.34
2022-12-22T18:01:30.274Z,100779.03
2022-12-22T18:03:58.197Z,100778.44
2022-12-22T18:06:33.871Z,100770.03
2022-12-22T18:09:01.612Z,100763.72
2022-12-22T18:11:28.556Z,100768.91
2022-12-22T18:13:57.497Z,100780.13
2022-12-22T18:16:24.705Z,100772.75
2022-12-22T18:18:51.835Z,100773.28
2022-12-22T18:21:22.818Z,100766.22
2022-12-22T18:23:51.307Z,100768.13
2022-12-22T18:26:24.798Z,100769.00
2022-12-22T18:28:52.115Z,100763.75
2022-12-22T18:31:19.707Z,100763.22
2022-12-22T18:33:46.789Z,100762.13
2022-12-22T18:36:31.638Z,100763.53
2022-12-22T18:38:59.348Z,100755.59
2022-12-22T18:41:29.236Z,100757.59
2022-12-22T18:43:56.126Z,100755.41
2022-12-22T18:46:24.337Z,100750.50
2022-12-22T18:48:51.337Z,100748.56
2022-12-22T18:51:20.289Z,100748.31
2022-12-22T18:53:48.385Z,100745.03
2022-12-22T18:56:15.533Z,100744.22
2022-12-22T18:58:42.762Z,100743.97
2022-12-22T19:01:22.415Z,100746.19
2022-12-22T19:03:51.224Z,100739.31
2022-12-22T19:06:20.759Z,100738.78
2022-12-22T19:08:49.034Z,100739.84
2022-12-22T19:11:21.608Z,100739.84
2022-12-22T19:13:51.264Z,100739.31
2022-12-22T19:16:23.209Z,100749.69
2022-12-22T19:18:50.147Z,100748.91
2022-12-22T19:21:18.590Z,100751.06
2022-12-22T19:23:46.049Z,100742.88
2022-12-22T19:26:21.739Z,100739.06
2022-12-22T19:28:57.323Z,100750.28
2022-12-22T19:31:33.206Z,100755.75
2022-12-22T19:34:04.383Z,100744.00
2022-12-22T19:36:33.472Z,100741.28
2022-12-22T19:39:04.582Z,100736.91
2022-12-22T19:41:38.361Z,100732.81
2022-12-22T19:44:16.110Z,100727.34
2022-12-22T19:46:43.070Z,100730.09
2022-12-22T19:49:19.168Z,100730.91
2022-12-22T19:51:46.297Z,100734.16
2022-12-22T19:54:13.793Z,100730.91
2022-12-22T19:56:42.328Z,100732.81
2022-12-22T19:59:38.557Z,100732.25
2022-12-22T20:02:30.769Z,100739.66
2022-12-22T20:04:58.812Z,100740.47
2022-12-22T20:07:27.740Z,100738.81
2022-12-22T20:09:54.677Z,100731.19
2022-12-22T20:12:40.221Z,100722.16
2022-12-22T20:15:38.065Z,100719.47
2022-12-22T20:18:15.177Z,100727.38
2022-12-22T20:20:43.041Z,100715.91
2022-12-22T20:23:19.584Z,100720.53
2022-12-22T20:25:58.798Z,100721.63
2022-12-22T20:28:28.192Z,100721.91
2022-12-22T20:30:56.177Z,100716.72
2022-12-22T20:33:24.969Z,100716.19
2022-12-22T20:35:53.485Z,100714.81
2022-12-22T20:38:35.081Z,100722.44
2022-12-22T20:41:03.049Z,100715.06
2022-12-22T20:43:32.098Z,100724.59
2022-12-22T20:46:23.664Z,100715.88
2022-12-22T20:48:56.136Z,100712.28
2022-12-22T20:51:26.572Z,100717.97
2022-12-22T20:53:53.978Z,100718.78
2022-12-22T20:56:22.230Z,100713.06
2022-12-22T20:58:49.897Z,100711.19
2022-12-22T21:01:17.369Z,100711.97
2022-12-22T21:03:44.776Z,100704.38
2022-12-22T21:06:22.917Z,100711.19
2022-12-22T21:08:49.864Z,100702.72
2022-12-22T21:11:16.974Z,100711.19
2022-12-22T21:13:43.864Z,100709.47
2022-12-22T21:16:17.338Z,100715.19
2022-12-22T21:18:44.885Z,100708.13
2022-12-22T21:21:12.547Z,100703.50
2022-12-22T21:23:39.472Z,100703.22
2022-12-22T21:26:16.701Z,100707.53
2022-12-22T21:28:43.769Z,100702.09
2022-12-22T21:31:10.726Z,100706.16
2022-12-22T21:33:37.597Z,100700.72
2022-12-22T21:36:05.020Z,100690.91
2022-12-22T21:38:33.455Z,100697.97
2022-12-22T21:41:00.393Z,100693.31
2022-12-22T21:43:27.325Z,100694.72
2022-12-22T21:45:54.249Z,100699.34
2022-12-22T21:48:21.533Z,100700.47
2022-12-22T21:50:50.372Z,100700.97
2022-12-22T21:53:22.456Z,100694.19
2022-12-22T21:55:50.281Z,100699.06
2022-12-22T21:58:17.845Z,100693.31
2022-12-22T22:00:48.559Z,100698.75
2022-12-22T22:03:16.312Z,100703.94
2022-12-22T22:05:43.456Z,100696.28
2022-12-22T22:08:12.334Z,100698.75
2022-12-22T22:10:42.362Z,100700.06
2022-12-22T22:13:14.789Z,100696.53
2022-12-22T22:15:41.770Z,100685.88
2022-12-22T22:18:15.551Z,100696.56
2022-12-22T22:20:42.428Z,100695.44
2022-12-22T22:23:11.986Z,100707.16
2022-12-22T22:25:39.077Z,100700.84
2022-12-22T22:28:06.275Z,100690.19
2022-12-22T22:30:33.077Z,100689.91
2022-12-22T22:32:59.994Z,100693.13
2022-12-22T22:35:27.554Z,100691.78
2022-12-22T22:37:55.252Z,100696.69
2022-12-22T22:40:23.212Z,100687.69
2022-12-22T22:42:50.238Z,100682.75
2022-12-22T22:45:23.460Z,100683.28
2022-12-22T22:47:51.421Z,100682.22
2022-12-22T22:50:19.999Z,100679.69
2022-12-22T22:52:47.629Z,100678.09
2022-12-22T22:55:15.039Z,100674.31
2022-12-22T22:57:42.916Z,100671.31
2022-12-22T23:00:13.063Z,100673.47
2022-12-22T23:02:40.461Z,100662.56
2022-12-22T23:05:07.871Z,100660.69
2022-12-22T23:07:35.660Z,100670.53
2022-12-22T23:10:03.255Z,100658.81
2022-12-22T23:12:30.083Z,100658.56
2022-12-22T23:14:57.011Z,100655.34
2022-12-22T23:17:24.186Z,100659.13
2022-12-22T23:19:50.994Z,100654.47
2022-12-22T23:22:18.069Z,100655.31
2022-12-22T23:24:45.296Z,100658.25
2022-12-22T23:27:12.258Z,100657.47
2022-12-22T23:29:39.528Z,100654.22
2022-12-22T23:32:06.840Z,100643.84
2022-12-22T23:34:33.762Z,100644.34
2022-12-22T23:37:01.079Z,100633.47
2022-12-22T23:39:28.188Z,100634.56
2022-12-22T23:41:55.055Z,100630.44
2022-12-22T23:44:21.999Z,100631.28
2022-12-22T23:46:49.109Z,100631.28
2022-12-22T23:49:16.235Z,100634.78
2022-12-22T23:51:43.183Z,100633.13
2022-12-22T23:54:10.100Z,100632.59
2022-12-22T23:56:36.892Z,100630.16
2022-12-22T23:59:03.775Z,100631.53
